createdAt,value
2023-01-31T00:00:25.101Z,32.5
2023-01-31T00:05:25.099Z,18.5
2023-01-31T00:10:25.107Z,24.6
2023-01-31T00:15:25.102Z,20.4
2023-01-31T00:20:25.092Z,23.8
2023-01-31T00:25:25.110Z,21.5
2023-01-31T00:30:25.102Z,19.7
2023-01-31T00:35:25.097Z,23.1
2023-01-31T00:40:25.096Z,13
2023-01-31T00:45:25.113Z,19
2023-01-31T00:50:25.100Z,18.8
2023-01-31T00:55:25.103Z,16.5
2023-01-31T01:00:25.132Z,19
2023-01-31T01:05:25.104Z,13.7
2023-01-31T01:10:25.108Z,12.5
2023-01-31T01:15:25.116Z,11.9
2023-01-31T01:20:25.107Z,20.2
2023-01-31T01:25:25.124Z,19.6
2023-01-31T01:30:25.112Z,16.7
2023-01-31T01:35:25.107Z,15.1
2023-01-31T01:40:25.109Z,17.1
2023-01-31T01:45:25.361Z,16.2
2023-01-31T01:50:25.114Z,15
2023-01-31T01:55:25.104Z,17.7
2023-01-31T02:00:25.114Z,13.9
2023-01-31T02:05:25.111Z,15.7
2023-01-31T02:10:25.302Z,19.6
2023-01-31T02:15:25.101Z,19.6
2023-01-31T02:20:25.268Z,17.8
2023-01-31T02:25:25.579Z,24.6
2023-01-31T02:30:25.218Z,27.1
2023-01-31T02:35:25.554Z,26.1
2023-01-31T02:40:25.381Z,21.3
2023-01-31T02:45:25.576Z,24.5
2023-01-31T02:50:25.109Z,17.2
2023-01-31T02:55:25.657Z,24
2023-01-31T03:00:25.108Z,22.7
2023-01-31T03:05:25.883Z,19.6
2023-01-31T03:10:25.103Z,22.7
2023-01-31T03:15:25.323Z,27
2023-01-31T03:20:25.110Z,19.7
2023-01-31T03:25:25.266Z,27.5
2023-01-31T03:30:25.098Z,17.4
2023-01-31T03:35:25.115Z,22.6
2023-01-31T03:40:25.103Z,31.7
2023-01-31T03:45:25.102Z,18
2023-01-31T03:50:25.100Z,18.7
2023-01-31T03:55:25.109Z,16.1
2023-01-31T04:00:25.107Z,19.2
2023-01-31T04:05:25.115Z,19.4
2023-01-31T04:10:25.092Z,18.3
2023-01-31T04:15:25.101Z,18.8
2023-01-31T04:20:25.104Z,13.6
2023-01-31T04:25:25.106Z,14.7
2023-01-31T04:30:25.098Z,19.3
2023-01-31T04:35:25.110Z,20.3
2023-01-31T04:40:25.112Z,17.4
2023-01-31T04:45:25.125Z,21.5
2023-01-31T04:50:25.097Z,17.7
2023-01-31T04:55:25.108Z,18.3
2023-01-31T05:00:25.107Z,11.4
2023-01-31T05:05:25.115Z,15.4
2023-01-31T05:10:25.110Z,15
2023-01-31T05:15:25.142Z,13.8
2023-01-31T05:20:25.101Z,16.3
2023-01-31T05:25:25.122Z,14.3
2023-01-31T05:30:25.104Z,18.2
2023-01-31T05:35:25.101Z,12.6
2023-01-31T05:40:25.105Z,13
2023-01-31T05:45:25.180Z,14.4
2023-01-31T05:50:25.101Z,13.3
2023-01-31T05:55:25.103Z,16.1
2023-01-31T06:00:25.108Z,11.9
2023-01-31T06:05:25.106Z,13.6
2023-01-31T06:10:25.106Z,13.4
2023-01-31T06:15:25.121Z,14.8
2023-01-31T06:20:25.113Z,17.5
2023-01-31T06:25:25.120Z,13.1
2023-01-31T06:30:25.194Z,13
2023-01-31T06:35:25.107Z,12.3
2023-01-31T06:40:25.107Z,13.5
2023-01-31T06:45:25.110Z,11.8
2023-01-31T06:50:25.108Z,16.7
2023-01-31T06:55:25.110Z,15.9
2023-01-31T07:00:25.102Z,14.2
2023-01-31T07:05:25.118Z,11.9
2023-01-31T07:10:25.106Z,13.6
2023-01-31T07:15:25.116Z,13.1
2023-01-31T07:20:25.107Z,17.1
2023-01-31T07:25:25.108Z,16.7
2023-01-31T07:30:25.126Z,18.1
2023-01-31T07:35:25.113Z,16.8
2023-01-31T07:40:25.108Z,14.6
2023-01-31T07:45:25.103Z,12.8
2023-01-31T07:50:25.100Z,15.8
2023-01-31T07:55:25.117Z,18.4
2023-01-31T08:00:25.098Z,12.7
2023-01-31T08:05:25.103Z,15.9
2023-01-31T08:10:25.102Z,18.6
2023-01-31T08:15:25.102Z,20.8
2023-01-31T08:20:25.107Z,18.8
2023-01-31T08:25:25.317Z,19
2023-01-31T08:30:25.159Z,21.2
2023-01-31T08:35:25.105Z,24.3
2023-01-31T08:40:25.164Z,24
2023-01-31T08:45:25.102Z,20.4
2023-01-31T08:50:27.841Z,20.8
2023-01-31T08:55:25.131Z,17.3
2023-01-31T09:00:25.100Z,12.5
2023-01-31T09:05:25.132Z,14.9
2023-01-31T09:10:25.218Z,16
2023-01-31T09:15:25.093Z,22
2023-01-31T09:20:25.106Z,20.6
2023-01-31T09:25:37.571Z,17.7
2023-01-31T09:30:25.150Z,23.2
2023-01-31T09:35:25.098Z,19.9
2023-01-31T09:40:25.110Z,20.8
2023-01-31T09:45:25.099Z,19.3
2023-01-31T09:50:25.105Z,25.2
2023-01-31T09:55:25.108Z,25.1
2023-01-31T10:00:25.121Z,18.5
2023-01-31T10:05:25.099Z,25.6
2023-01-31T10:10:25.103Z,25.6
2023-01-31T10:15:25.108Z,24.6
2023-01-31T10:20:25.185Z,24.3
2023-01-31T10:25:25.113Z,25.2
2023-01-31T10:30:25.184Z,25.3
2023-01-31T10:35:25.108Z,24.8
2023-01-31T10:40:30.777Z,25
2023-01-31T10:45:25.130Z,25.6
2023-01-31T10:50:25.117Z,21.2
2023-01-31T10:55:25.108Z,28
2023-01-31T11:00:25.107Z,39.1
2023-01-31T11:05:25.108Z,46
2023-01-31T11:10:25.121Z,38.2
2023-01-31T11:15:25.134Z,40.3
2023-01-31T11:20:25.134Z,36.1
2023-01-31T11:25:25.129Z,34.7
2023-01-31T11:30:25.152Z,24.4
2023-01-31T11:35:25.136Z,26.7
2023-01-31T11:40:25.121Z,24.2
2023-01-31T11:45:25.104Z,18.9
2023-01-31T11:50:27.823Z,27.2
2023-01-31T11:55:25.126Z,32.1
2023-01-31T12:00:25.107Z,25.2
2023-01-31T12:05:25.113Z,42.3
2023-01-31T12:10:25.113Z,36.4
2023-01-31T12:15:25.122Z,37.2
2023-01-31T12:20:28.361Z,31.9
2023-01-31T12:25:25.117Z,37.7
2023-01-31T12:30:25.166Z,31.3
2023-01-31T12:35:25.496Z,30.3
2023-01-31T12:40:26.552Z,39.4
2023-01-31T12:45:25.107Z,31.3
2023-01-31T12:50:25.113Z,39.7
2023-01-31T12:55:25.105Z,31.9
2023-01-31T13:00:25.099Z,39.4
2023-01-31T13:05:27.838Z,27
2023-01-31T13:10:25.107Z,26.1
2023-01-31T13:15:25.106Z,35.7
2023-01-31T13:20:25.104Z,31.9
2023-01-31T13:25:25.108Z,30.5
2023-01-31T13:30:25.109Z,27.6
2023-01-31T13:35:25.104Z,20.8
2023-01-31T13:40:25.099Z,26.3
2023-01-31T13:45:25.113Z,22.2
2023-01-31T13:50:25.106Z,27
2023-01-31T13:55:25.106Z,27.5
2023-01-31T14:00:25.104Z,37.2
2023-01-31T14:05:25.104Z,33
2023-01-31T14:10:25.108Z,30.3
2023-01-31T14:15:25.102Z,24.7
2023-01-31T14:20:25.102Z,38.8
2023-01-31T14:25:25.103Z,34.7
2023-01-31T14:30:25.111Z,29.5
2023-01-31T14:35:25.105Z,30
2023-01-31T14:40:25.100Z,36.4
2023-01-31T14:45:25.106Z,30.5
2023-01-31T14:50:25.186Z,30.3
2023-01-31T14:55:25.100Z,22.7
2023-01-31T15:00:25.111Z,34.7
2023-01-31T15:05:25.112Z,29.4
2023-01-31T15:10:25.110Z,38
2023-01-31T15:15:25.100Z,34.7
2023-01-31T15:20:25.114Z,29.5
2023-01-31T15:25:25.100Z,28.6
2023-01-31T15:30:25.149Z,33
2023-01-31T15:35:25.103Z,27.6
2023-01-31T15:40:25.099Z,26.7
2023-01-31T15:45:25.127Z,25.9
2023-01-31T15:50:25.117Z,34.5
2023-01-31T15:55:25.110Z,38.8
2023-01-31T16:00:25.126Z,34.5
2023-01-31T16:05:25.111Z,37.4
2023-01-31T16:10:25.105Z,36.1
2023-01-31T16:15:25.115Z,36.1
2023-01-31T16:20:25.118Z,27.5
2023-01-31T16:25:25.125Z,25.2
2023-01-31T16:30:25.105Z,32.6
2023-01-31T16:35:25.174Z,25
2023-01-31T16:40:25.114Z,24.5
2023-01-31T16:45:25.120Z,25.8
2023-01-31T16:50:41.019Z,28.2
2023-01-31T16:55:25.099Z,23.4
2023-01-31T17:00:25.106Z,19.4
2023-01-31T17:05:25.096Z,21.1
2023-01-31T17:10:25.113Z,21.3
2023-01-31T17:15:25.108Z,24.1
2023-01-31T17:20:25.127Z,31.9
2023-01-31T17:25:25.123Z,25.8
2023-01-31T17:30:25.139Z,22.8
2023-01-31T17:35:25.106Z,29.4
2023-01-31T17:40:25.164Z,33
2023-01-31T17:45:25.109Z,24
2023-01-31T17:50:25.120Z,27.6
2023-01-31T17:55:25.479Z,24.5
2023-01-31T18:00:25.114Z,23.4
2023-01-31T18:05:38.128Z,27.8
2023-01-31T18:10:25.113Z,29.1
2023-01-31T18:15:25.101Z,31.3
2023-01-31T18:20:25.097Z,26.3
2023-01-31T18:25:25.121Z,23.4
2023-01-31T18:30:25.138Z,30.8
2023-01-31T18:35:25.115Z,23.9
2023-01-31T18:40:25.098Z,20.6
2023-01-31T18:45:25.111Z,35.7
2023-01-31T18:50:25.101Z,35.9
2023-01-31T18:55:25.107Z,33
2023-01-31T19:00:25.105Z,22.7
2023-01-31T19:05:25.114Z,30.8
2023-01-31T19:10:25.106Z,22.6
2023-01-31T19:15:25.129Z,20.6
2023-01-31T19:20:25.113Z,28.6
2023-01-31T19:25:25.107Z,31.3
2023-01-31T19:30:25.109Z,29.5
2023-01-31T19:35:25.106Z,30.1
2023-01-31T19:40:25.100Z,35
2023-01-31T19:45:25.300Z,20.4
2023-01-31T19:50:25.109Z,34.3
2023-01-31T19:55:25.111Z,18.2
2023-01-31T20:00:25.095Z,18.5
2023-01-31T20:05:25.103Z,29.5
2023-01-31T20:10:25.091Z,31
2023-01-31T20:15:25.093Z,27.5
2023-01-31T20:20:25.103Z,24.7
2023-01-31T20:25:25.098Z,22.6
2023-01-31T20:30:25.096Z,21.4
2023-01-31T20:35:25.098Z,27
2023-01-31T20:40:25.101Z,24.8
2023-01-31T20:45:25.108Z,23.9
2023-01-31T20:50:25.119Z,30.3
2023-01-31T20:55:25.097Z,28.6
2023-01-31T21:00:25.099Z,24.2
2023-01-31T21:05:25.109Z,22.7
2023-01-31T21:10:25.141Z,23.3
2023-01-31T21:15:26.326Z,25.7
2023-01-31T21:20:25.103Z,23.5
2023-01-31T21:25:25.123Z,27.6
2023-01-31T21:30:25.097Z,17.3
2023-01-31T21:35:25.120Z,19.7
2023-01-31T21:40:25.112Z,19.7
2023-01-31T21:45:25.106Z,20
2023-01-31T21:50:25.102Z,19.4
2023-01-31T21:55:25.113Z,22.8
2023-01-31T22:00:25.105Z,22.5
2023-01-31T22:05:25.110Z,20.9
2023-01-31T22:10:25.104Z,25.3
2023-01-31T22:15:25.135Z,22.2
2023-01-31T22:20:25.120Z,17.6
2023-01-31T22:25:25.110Z,19.4
2023-01-31T22:30:25.133Z,19.7
2023-01-31T22:35:25.106Z,24.4
2023-01-31T22:40:25.103Z,25
2023-01-31T22:45:25.102Z,18.8
2023-01-31T22:50:25.100Z,20.3
2023-01-31T22:55:25.109Z,23.6
2023-01-31T23:00:25.105Z,20.1
2023-01-31T23:05:25.116Z,16.7
2023-01-31T23:10:25.111Z,21
2023-01-31T23:15:25.113Z,22.5
2023-01-31T23:20:25.110Z,22.5
2023-01-31T23:25:25.109Z,18.7
2023-01-31T23:30:25.100Z,22.1
2023-01-31T23:35:25.116Z,24.8
2023-01-31T23:40:25.118Z,21.8
2023-01-31T23:45:25.128Z,16.6
2023-01-31T23:50:25.102Z,24.1
2023-01-31T23:55:25.100Z,22.7
